Orbital elements of FENGYUN 1C DEB
| Launched | 9 May 1999 |
| Flight ended | – |
| Launch site | Taiyuan Space Center, PRC |
| Owner | People's Republic of China |
| NORAD ID | 31674 |
| Date fetched |
Epoch osculation |
Inc. [°] |
Ecc. | RA asc node [hr] |
Arg Peri. [°] |
Mean anom [°] |
Mean motion [rev/day] |
Abs. mag |
| Date fetched |
Epoch osculation |
Inc. [°] |
Ecc. | RA asc node [hr] |
Arg Peri. [°] |
Mean anom [°] |
Mean motion [rev/day] |
Abs. mag |
| 2026 May 05 17:57 | 2026 May 03 20:53:49 | 98.9165 | 0.00241 | 11.6254 | 210.4344 | 149.5452 | 14.55106 | – |
| 2026 May 04 17:57 | 2026 Apr 27 21:18:46 | 98.9191 | 0.00231 | 11.2000 | 228.0583 | 149.5452 | 14.55106 | – |
| 2026 May 03 17:57 | 2026 Apr 27 21:18:46 | 98.9191 | 0.00231 | 11.2000 | 228.0583 | 149.5452 | 14.55106 | – |
| 2026 May 02 17:57 | 2026 Apr 27 21:18:46 | 98.9191 | 0.00231 | 11.2000 | 228.0583 | 149.5452 | 14.55106 | – |
| 2026 May 01 17:56 | 2026 Apr 27 21:18:46 | 98.9191 | 0.00231 | 11.2000 | 228.0583 | 149.5452 | 14.55106 | – |
| 2026 Apr 30 17:56 | 2026 Apr 27 21:18:46 | 98.9191 | 0.00231 | 11.2000 | 228.0583 | 149.5452 | 14.55106 | – |
| 2026 Apr 29 17:57 | 2026 Apr 20 20:57:29 | 98.9200 | 0.00224 | 10.7011 | 249.9998 | 149.5452 | 14.55106 | – |
| 2026 Apr 28 17:56 | 2026 Apr 20 20:57:29 | 98.9200 | 0.00224 | 10.7011 | 249.9998 | 149.5452 | 14.55106 | – |
| 2026 Apr 27 17:58 | 2026 Apr 20 20:57:29 | 98.9200 | 0.00224 | 10.7011 | 249.9998 | 149.5452 | 14.55106 | – |
| 2026 Apr 26 17:58 | 2026 Apr 20 20:57:29 | 98.9200 | 0.00224 | 10.7011 | 249.9998 | 149.5452 | 14.55106 | – |
| 2026 Apr 25 17:58 | 2026 Apr 20 20:57:29 | 98.9200 | 0.00224 | 10.7011 | 249.9998 | 149.5452 | 14.55106 | – |
| 2026 Apr 24 17:59 | 2026 Apr 20 20:57:29 | 98.9200 | 0.00224 | 10.7011 | 249.9998 | 149.5452 | 14.55106 | – |
| 2026 Apr 23 17:57 | 2026 Apr 19 08:38:42 | 98.9193 | 0.00220 | 10.5936 | 254.8981 | 149.5452 | 14.55106 | – |
| 2026 Apr 22 17:57 | 2026 Apr 19 08:38:42 | 98.9193 | 0.00220 | 10.5936 | 254.8981 | 149.5452 | 14.55106 | – |
| 2026 Apr 21 17:57 | 2026 Apr 19 08:38:42 | 98.9193 | 0.00220 | 10.5936 | 254.8981 | 149.5452 | 14.55106 | – |
| 2026 Apr 20 17:57 | 2026 Apr 19 08:38:42 | 98.9193 | 0.00220 | 10.5936 | 254.8981 | 149.5452 | 14.55106 | – |
| 2026 Apr 19 17:58 | 2026 Apr 19 08:38:42 | 98.9193 | 0.00220 | 10.5936 | 254.8981 | 149.5452 | 14.55106 | – |
| 2026 Apr 18 17:56 | 2026 Apr 11 20:43:22 | 98.9196 | 0.00214 | 10.0607 | 279.1701 | 149.5452 | 14.55106 | – |
| 2026 Apr 16 17:57 | 2026 Apr 11 20:43:22 | 98.9196 | 0.00214 | 10.0607 | 279.1701 | 149.5452 | 14.55106 | – |
| 2026 Apr 14 17:57 | 2026 Apr 11 20:43:22 | 98.9196 | 0.00214 | 10.0607 | 279.1701 | 149.5452 | 14.55106 | – |
| 2026 Apr 13 17:57 | 2026 Apr 11 20:43:22 | 98.9196 | 0.00214 | 10.0607 | 279.1701 | 149.5452 | 14.55106 | – |
| 2026 Apr 12 17:57 | 2026 Apr 07 09:25:28 | 98.9217 | 0.00209 | 9.7429 | 294.4054 | 149.5452 | 14.55106 | – |
| 2026 Apr 11 17:57 | 2026 Apr 07 09:25:28 | 98.9217 | 0.00209 | 9.7429 | 294.4054 | 149.5452 | 14.55106 | – |
| 2026 Apr 10 17:58 | 2026 Apr 07 09:25:28 | 98.9217 | 0.00209 | 9.7429 | 294.4054 | 149.5452 | 14.55106 | – |
| 2026 Apr 09 18:01 | 2026 Apr 07 09:25:28 | 98.9217 | 0.00209 | 9.7429 | 294.4054 | 149.5452 | 14.55106 | – |
| 2026 Apr 08 17:57 | 2026 Apr 07 09:25:28 | 98.9217 | 0.00209 | 9.7429 | 294.4054 | 149.5452 | 14.55106 | – |